Time;durP1;ratioP1;P1;durP2;ratioP2;P2;SDS_P1;SDS_P2;PMS_P1;PMS_P2;Temp;Humidity;BMP_temperature;BMP_pressure;BME280_temperature;BME280_humidity;BME280_pressure;Samples;Min_cycle;Max_cycle;Signal;HPM_P1;HPM_P2
2023/10/07 00:05:46;;;;;;;;;;;12.70;99.90;;;;;;6725205;88;20035;-82
2023/10/07 00:15:48;;;;;;;;;;;12.80;99.90;;;;;;6720304;88;20064;-81
2023/10/07 00:25:50;;;;;;;;;;;12.80;99.90;;;;;;6718480;88;20062;-82
2023/10/07 00:35:53;;;;;;;;;;;13.00;99.90;;;;;;6718806;88;20131;-82
2023/10/07 00:45:59;;;;;;;;;;;12.60;99.90;;;;;;6712877;88;20679;-80
2023/10/07 00:55:59;;;;;;;;;;;12.40;99.90;;;;;;6708323;88;20087;-81
2023/10/07 01:16:06;;;;;;;;;;;12.00;99.90;;;;;;6710134;88;20082;-80
2023/10/07 01:26:20;;;;;;;;;;;12.00;99.90;;;;;;6705775;88;20075;-80
2023/10/07 01:36:25;;;;;;;;;;;12.10;99.90;;;;;;6723892;88;20063;-79
2023/10/07 01:46:27;;;;;;;;;;;12.30;99.90;;;;;;6733135;88;20056;-80
2023/10/07 01:56:29;;;;;;;;;;;12.00;99.90;;;;;;6729372;88;20517;-80
2023/10/07 02:06:29;;;;;;;;;;;12.00;99.90;;;;;;6728499;88;20608;-78
2023/10/07 02:27:38;;;;;;;;;;;12.00;99.90;;;;;;6750352;88;20040;-80
2023/10/07 02:37:38;;;;;;;;;;;12.20;99.90;;;;;;6751114;88;20030;-82
2023/10/07 02:47:40;;;;;;;;;;;12.20;99.90;;;;;;6751921;88;20026;-82
2023/10/07 02:57:41;;;;;;;;;;;12.20;99.90;;;;;;6751320;88;20038;-82
2023/10/07 03:07:42;;;;;;;;;;;12.40;99.90;;;;;;6751356;88;20666;-82
2023/10/07 03:17:45;;;;;;;;;;;12.20;99.90;;;;;;6747541;88;20059;-81
2023/10/07 03:27:50;;;;;;;;;;;12.40;99.90;;;;;;6751181;88;20030;-83
2023/10/07 03:37:54;;;;;;;;;;;12.10;99.90;;;;;;6734359;88;20038;-83
2023/10/07 03:47:54;;;;;;;;;;;12.00;99.90;;;;;;6734163;88;20038;-83
2023/10/07 03:57:55;;;;;;;;;;;12.20;99.90;;;;;;6731810;88;20040;-83
2023/10/07 04:07:55;;;;;;;;;;;12.00;99.90;;;;;;6730843;88;20054;-81
2023/10/07 04:17:59;;;;;;;;;;;11.80;99.90;;;;;;6729200;88;20570;-81
2023/10/07 04:28:06;;;;;;;;;;;11.90;99.90;;;;;;6731707;88;20048;-81
2023/10/07 04:38:18;;;;;;;;;;;11.80;99.90;;;;;;6732370;88;20019;-82
2023/10/07 04:48:31;;;;;;;;;;;12.00;99.90;;;;;;6731429;88;20067;-81
2023/10/07 04:58:32;;;;;;;;;;;12.00;99.90;;;;;;6731344;88;20691;-81
2023/10/07 05:08:33;;;;;;;;;;;12.10;99.90;;;;;;6730419;88;20063;-81
2023/10/07 05:18:34;;;;;;;;;;;12.30;99.90;;;;;;6731792;88;20093;-82
2023/10/07 05:28:35;;;;;;;;;;;12.40;99.90;;;;;;6731761;88;20998;-82
2023/10/07 05:38:37;;;;;;;;;;;12.70;99.90;;;;;;6734246;88;20045;-84
2023/10/07 06:29:05;;;;;;;;;;;13.00;99.90;;;;;;6736382;88;20047;-82
2023/10/07 06:39:12;;;;;;;;;;;12.90;99.90;;;;;;6750882;88;20117;-83
2023/10/07 07:19:37;;;;;;;;;;;13.60;99.90;;;;;;6769314;87;20054;-86
2023/10/07 07:29:38;;;;;;;;;;;13.70;99.90;;;;;;6767895;88;20081;-88
2023/10/07 08:10:35;;;;;;;;;;;14.90;99.90;;;;;;7017698;77;20079;-78
2023/10/07 08:20:44;;;;;;;;;;;15.00;99.90;;;;;;6754616;88;20061;-77
2023/10/07 08:30:48;;;;;;;;;;;15.20;99.90;;;;;;6736955;88;20497;-77
2023/10/07 08:40:59;;;;;;;;;;;15.40;99.90;;;;;;6734582;88;20175;-80
2023/10/07 08:50:59;;;;;;;;;;;15.60;99.90;;;;;;6734910;88;20174;-79
2023/10/07 09:01:01;;;;;;;;;;;16.00;99.90;;;;;;6749289;88;20190;-82
2023/10/07 09:11:08;;;;;;;;;;;16.10;99.90;;;;;;6768311;87;20079;-79
2023/10/07 09:21:11;;;;;;;;;;;16.30;99.90;;;;;;6757182;88;20045;-80
2023/10/07 09:31:15;;;;;;;;;;;16.70;99.90;;;;;;6748168;88;20058;-81
2023/10/07 09:51:28;;;;;;;;;;;17.80;99.90;;;;;;6746062;88;20069;-79
2023/10/07 10:01:37;;;;;;;;;;;19.40;99.90;;;;;;6749983;88;20057;-79
2023/10/07 10:21:38;;;;;;;;;;;22.00;99.90;;;;;;6742607;88;20520;-79
2023/10/07 10:31:43;;;;;;;;;;;23.40;99.90;;;;;;6752480;88;20055;-79
2023/10/07 10:41:44;;;;;;;;;;;23.70;99.90;;;;;;6738002;88;20054;-79
2023/10/07 10:51:46;;;;;;;;;;;24.00;99.90;;;;;;6744151;88;20477;-79
2023/10/07 11:01:49;;;;;;;;;;;25.10;99.90;;;;;;6746533;88;20104;-79
2023/10/07 11:11:52;;;;;;;;;;;25.00;99.90;;;;;;6747397;88;20054;-78
2023/10/07 11:21:54;;;;;;;;;;;25.00;99.90;;;;;;6742913;88;20051;-79
2023/10/07 11:31:58;;;;;;;;;;;25.60;99.90;;;;;;6744589;88;20045;-79
2023/10/07 11:42:01;;;;;;;;;;;26.10;99.90;;;;;;6745215;88;20066;-80
2023/10/07 11:52:03;;;;;;;;;;;25.70;99.90;;;;;;6749891;88;20065;-79
2023/10/07 12:02:09;;;;;;;;;;;25.60;99.90;;;;;;6752674;87;20101;-80
2023/10/07 12:12:11;;;;;;;;;;;27.40;99.90;;;;;;6755244;88;20056;-79
2023/10/07 12:22:13;;;;;;;;;;;26.90;99.90;;;;;;6746036;88;20078;-79
2023/10/07 12:32:13;;;;;;;;;;;27.90;99.90;;;;;;6744150;88;20061;-81
2023/10/07 12:42:14;;;;;;;;;;;29.60;98.50;;;;;;6748229;88;20058;-81
2023/10/07 12:52:16;;;;;;;;;;;29.80;98.40;;;;;;6739963;88;20163;-80
2023/10/07 13:02:17;;;;;;;;;;;31.20;95.80;;;;;;6744425;88;20521;-80
2023/10/07 13:12:18;;;;;;;;;;;31.30;95.20;;;;;;6747693;88;20073;-81
2023/10/07 13:22:18;;;;;;;;;;;30.10;95.50;;;;;;6754519;88;20071;-81
2023/10/07 13:32:18;;;;;;;;;;;30.90;94.90;;;;;;6737812;88;20061;-82
2023/10/07 13:42:20;;;;;;;;;;;30.10;95.00;;;;;;6746508;88;20062;-80
2023/10/07 13:52:22;;;;;;;;;;;29.40;95.60;;;;;;6744079;88;20072;-80
2023/10/07 14:02:22;;;;;;;;;;;29.40;95.90;;;;;;6742877;88;20074;-80
2023/10/07 14:22:28;;;;;;;;;;;29.20;95.90;;;;;;6770485;88;20088;-81
2023/10/07 14:32:28;;;;;;;;;;;28.40;96.40;;;;;;6749381;88;20108;-81
2023/10/07 14:42:31;;;;;;;;;;;28.70;96.40;;;;;;6763108;88;20065;-81
2023/10/07 14:52:33;;;;;;;;;;;28.10;96.70;;;;;;6762722;88;20092;-81
2023/10/07 15:02:33;;;;;;;;;;;27.90;96.80;;;;;;6765735;88;20074;-83
2023/10/07 15:12:36;;;;;;;;;;;27.60;96.20;;;;;;6766058;88;20088;-83
2023/10/07 15:22:37;;;;;;;;;;;27.20;96.80;;;;;;6766831;88;20775;-83
2023/10/07 15:32:37;;;;;;;;;;;27.20;96.90;;;;;;6766418;88;20061;-83
2023/10/07 15:42:38;;;;;;;;;;;26.40;95.10;;;;;;6761739;88;20057;-83
2023/10/07 15:52:39;;;;;;;;;;;26.10;95.00;;;;;;6763204;88;20025;-83
2023/10/07 16:02:40;;;;;;;;;;;25.60;95.50;;;;;;6763769;88;20034;-81
2023/10/07 16:12:42;;;;;;;;;;;25.20;95.80;;;;;;6762179;88;20300;-82
2023/10/07 16:22:42;;;;;;;;;;;24.70;96.30;;;;;;6760480;88;20077;-81
2023/10/07 16:32:45;;;;;;;;;;;24.20;96.30;;;;;;6765735;88;20070;-77
2023/10/07 16:42:46;;;;;;;;;;;23.60;97.30;;;;;;6741506;88;20089;-78
2023/10/07 16:52:48;;;;;;;;;;;23.20;96.90;;;;;;6741949;88;20059;-77
2023/10/07 17:02:49;;;;;;;;;;;22.70;97.40;;;;;;6739867;88;20376;-76
2023/10/07 17:12:49;;;;;;;;;;;22.20;99.30;;;;;;6738407;88;20573;-76
2023/10/07 17:22:50;;;;;;;;;;;21.80;99.50;;;;;;6746930;88;20076;-77
2023/10/07 17:32:50;;;;;;;;;;;21.40;99.90;;;;;;6744075;88;20582;-82
2023/10/07 17:42:51;;;;;;;;;;;21.00;99.90;;;;;;6737888;88;20050;-82
2023/10/07 17:52:52;;;;;;;;;;;20.80;99.90;;;;;;6740505;88;20074;-81
2023/10/07 18:02:54;;;;;;;;;;;20.90;99.90;;;;;;6741590;88;20051;-82
2023/10/07 18:12:56;;;;;;;;;;;20.20;99.90;;;;;;6746477;88;20086;-83
2023/10/07 18:22:57;;;;;;;;;;;19.70;99.90;;;;;;6748872;88;20117;-82
2023/10/07 18:32:59;;;;;;;;;;;19.60;99.90;;;;;;6748133;88;20209;-83
2023/10/07 18:43:00;;;;;;;;;;;19.30;99.90;;;;;;6748395;88;20157;-80
2023/10/07 18:53:00;;;;;;;;;;;19.00;99.90;;;;;;6752149;88;20030;-82
2023/10/07 19:03:01;;;;;;;;;;;18.30;99.90;;;;;;6751181;88;20130;-83
2023/10/07 19:13:09;;;;;;;;;;;18.10;99.90;;;;;;6750578;88;20028;-87
2023/10/07 19:23:09;;;;;;;;;;;17.90;99.90;;;;;;6766104;88;21071;-84
2023/10/07 19:33:13;;;;;;;;;;;17.90;99.90;;;;;;6767409;88;20074;-83
2023/10/07 19:43:13;;;;;;;;;;;17.60;99.90;;;;;;6767625;88;20062;-84
2023/10/07 19:53:14;;;;;;;;;;;17.30;99.90;;;;;;6767576;88;20058;-82
2023/10/07 20:03:15;;;;;;;;;;;17.30;99.90;;;;;;6767593;88;20671;-83
2023/10/07 20:13:15;;;;;;;;;;;18.10;99.90;;;;;;6768325;88;20049;-84
2023/10/07 20:23:16;;;;;;;;;;;18.00;99.90;;;;;;6767895;88;20068;-84
2023/10/07 20:33:16;;;;;;;;;;;17.70;99.90;;;;;;6767314;88;20564;-84
2023/10/07 20:43:17;;;;;;;;;;;17.10;99.90;;;;;;6767088;88;20143;-84
2023/10/07 21:03:21;;;;;;;;;;;16.70;99.90;;;;;;6739403;88;20109;-80
2023/10/07 21:13:21;;;;;;;;;;;16.50;99.90;;;;;;6740382;88;20030;-80
2023/10/07 21:23:25;;;;;;;;;;;16.30;99.90;;;;;;6723817;88;20064;-81
2023/10/07 21:33:25;;;;;;;;;;;16.20;99.90;;;;;;6718390;88;20043;-80
2023/10/07 21:43:26;;;;;;;;;;;16.10;99.90;;;;;;6709181;88;20519;-80
2023/10/07 21:53:27;;;;;;;;;;;16.10;99.90;;;;;;6708551;88;20068;-80
2023/10/07 22:03:27;;;;;;;;;;;16.00;99.90;;;;;;6725036;88;20163;-80
2023/10/07 22:13:28;;;;;;;;;;;16.00;99.90;;;;;;6746533;88;20665;-81
2023/10/07 22:23:29;;;;;;;;;;;16.20;99.90;;;;;;6746023;88;20098;-80
2023/10/07 22:33:33;;;;;;;;;;;16.10;99.90;;;;;;6740127;88;20091;-80
2023/10/07 22:43:38;;;;;;;;;;;16.20;99.90;;;;;;6735875;88;20054;-80
2023/10/07 22:53:44;;;;;;;;;;;16.20;99.90;;;;;;6729666;88;20060;-80
2023/10/07 23:03:48;;;;;;;;;;;16.10;99.90;;;;;;6734864;88;20076;-80
2023/10/07 23:13:53;;;;;;;;;;;16.00;99.90;;;;;;6728334;88;20370;-80
2023/10/07 23:23:53;;;;;;;;;;;16.10;99.90;;;;;;6744460;88;20308;-80
2023/10/07 23:33:54;;;;;;;;;;;16.00;99.90;;;;;;6745526;88;20058;-80
2023/10/07 23:43:54;;;;;;;;;;;16.20;99.90;;;;;;6743627;88;20119;-81
2023/10/07 23:53:55;;;;;;;;;;;16.20;99.90;;;;;;6741887;88;20094;-80
